createdAt,value
2019-05-23T00:01:40.268Z,45.40
2019-05-23T00:04:14.577Z,44.85
2019-05-23T00:06:44.026Z,42.50
2019-05-23T00:09:13.528Z,44.70
2019-05-23T00:11:44.597Z,47.08
2019-05-23T00:14:40.009Z,46.08
2019-05-23T00:17:12.389Z,49.33
2019-05-23T00:19:42.347Z,54.73
2019-05-23T00:22:11.685Z,50.17
2019-05-23T00:24:42.645Z,49.80
2019-05-23T00:27:12.841Z,57.40
2019-05-23T00:29:43.300Z,55.15
2019-05-23T00:32:32.997Z,53.73
2019-05-23T00:35:04.379Z,52.13
2019-05-23T00:37:34.706Z,54.48
2019-05-23T00:40:04.024Z,54.20
2019-05-23T00:42:33.223Z,63.58
2019-05-23T00:45:02.546Z,55.80
2019-05-23T00:47:31.741Z,56.23
2019-05-23T00:50:01.269Z,52.05
2019-05-23T00:52:30.313Z,56.95
2019-05-23T00:55:20.145Z,61.25
2019-05-23T00:57:49.268Z,59.03
2019-05-23T01:00:21.184Z,71.92
2019-05-23T01:02:49.896Z,65.75
2019-05-23T01:05:18.805Z,69.77
2019-05-23T01:07:48.399Z,66.20
2019-05-23T01:10:19.200Z,60.52
2019-05-23T01:12:48.098Z,67.87
2019-05-23T01:15:17.411Z,63.13
2019-05-23T01:17:47.908Z,63.15
2019-05-23T01:20:18.781Z,70.52
2019-05-23T01:22:48.909Z,66.40
2019-05-23T01:25:21.387Z,68.95
2019-05-23T01:30:20.792Z,71.00
2019-05-23T01:32:51.471Z,72.55
2019-05-23T01:35:22.370Z,72.53
2019-05-23T01:37:51.864Z,65.70
2019-05-23T01:40:21.854Z,74.87
2019-05-23T01:42:51.608Z,70.20
2019-05-23T01:45:22.822Z,72.32
2019-05-23T01:47:52.102Z,77.20
2019-05-23T01:50:25.395Z,91.30
2019-05-23T01:52:54.298Z,96.78
2019-05-23T01:55:23.824Z,93.72
2019-05-23T01:57:53.722Z,80.80
2019-05-23T02:00:24.584Z,88.60
2019-05-23T02:02:54.829Z,82.72
2019-05-23T02:05:25.582Z,94.20
2019-05-23T02:07:55.368Z,89.75
2019-05-23T02:10:24.673Z,84.25
2019-05-23T02:12:53.971Z,82.30
2019-05-23T02:15:25.124Z,81.78
2019-05-23T02:17:54.071Z,74.80
2019-05-23T02:20:23.516Z,71.40
2019-05-23T02:22:53.113Z,62.60
2019-05-23T02:25:23.009Z,58.42
2019-05-23T02:27:53.516Z,63.48
2019-05-23T02:30:34.317Z,53.25
2019-05-23T02:32:53.385Z,56.50
2019-05-23T02:35:22.781Z,47.50
2019-05-23T02:38:09.381Z,44.67
2019-05-23T02:40:43.660Z,48.30
2019-05-23T02:43:16.945Z,50.85
2019-05-23T02:45:50.019Z,50.78
2019-05-23T02:48:20.428Z,48.98
2019-05-23T02:50:53.370Z,43.87
2019-05-23T02:53:25.477Z,49.38
2019-05-23T02:55:57.992Z,47.00
2019-05-23T03:01:01.348Z,40.33
2019-05-23T03:03:32.065Z,41.20
2019-05-23T03:06:02.082Z,36.68
2019-05-23T03:08:32.002Z,36.90
2019-05-23T03:11:17.241Z,35.68
2019-05-23T03:13:47.536Z,34.40
2019-05-23T03:16:19.270Z,37.50
2019-05-23T03:18:51.251Z,43.00
2019-05-23T03:21:19.939Z,42.62
2019-05-23T03:23:49.426Z,37.03
2019-05-23T03:26:33.630Z,37.15
2019-05-23T03:29:03.425Z,37.83
2019-05-23T03:31:34.701Z,39.83
2019-05-23T03:34:04.017Z,40.58
2019-05-23T03:36:33.165Z,42.62
2019-05-23T03:39:02.877Z,35.38
2019-05-23T03:41:32.094Z,39.55
2019-05-23T03:44:03.237Z,43.68
2019-05-23T03:46:34.002Z,34.78
2019-05-23T03:49:03.800Z,32.60
2019-05-23T03:51:32.828Z,33.65
2019-05-23T03:54:02.753Z,36.10
2019-05-23T03:56:31.510Z,38.10
2019-05-23T03:59:00.862Z,35.85
2019-05-23T04:01:47.035Z,33.53
2019-05-23T04:04:03.248Z,41.40
2019-05-23T04:06:33.148Z,34.80
2019-05-23T04:09:03.888Z,42.38
2019-05-23T04:11:32.597Z,40.50
2019-05-23T04:14:01.902Z,38.85
2019-05-23T04:16:31.077Z,40.48
2019-05-23T04:18:59.788Z,53.92
2019-05-23T04:21:28.879Z,48.60
2019-05-23T04:23:57.613Z,42.78
2019-05-23T04:26:26.866Z,46.10
2019-05-23T04:28:55.761Z,40.43
2019-05-23T04:31:25.081Z,33.28
2019-05-23T04:33:54.101Z,29.25
2019-05-23T04:36:23.530Z,30.43
2019-05-23T04:38:52.489Z,25.45
2019-05-23T04:41:21.227Z,29.55
2019-05-23T04:43:49.950Z,34.38
2019-05-23T04:46:18.673Z,41.28
2019-05-23T04:48:47.442Z,45.83
2019-05-23T04:51:16.460Z,38.53
2019-05-23T04:53:45.098Z,40.58
2019-05-23T04:56:14.469Z,38.28
2019-05-23T04:58:44.759Z,40.67
2019-05-23T05:01:13.876Z,45.33
2019-05-23T05:03:45.329Z,37.60
2019-05-23T05:06:14.956Z,30.75
2019-05-23T05:08:43.784Z,30.62
2019-05-23T05:11:12.841Z,36.33
2019-05-23T05:13:42.370Z,84.80
2019-05-23T05:16:11.691Z,34.15
2019-05-23T05:18:41.227Z,28.75
2019-05-23T05:21:10.016Z,25.57
2019-05-23T05:23:38.748Z,17.35
2019-05-23T05:26:10.472Z,14.40
2019-05-23T05:28:39.204Z,14.65
2019-05-23T05:31:08.024Z,19.73
2019-05-23T05:33:37.257Z,18.12
2019-05-23T05:36:07.760Z,20.70
2019-05-23T05:38:36.417Z,26.00
2019-05-23T05:41:06.261Z,26.25
2019-05-23T05:43:35.474Z,33.23
2019-05-23T05:46:05.410Z,33.15
2019-05-23T05:48:34.774Z,28.47
2019-05-23T05:51:05.936Z,22.30
2019-05-23T05:53:35.009Z,19.50
2019-05-23T05:56:04.203Z,21.37
2019-05-23T05:58:33.023Z,24.12
2019-05-23T06:01:03.026Z,25.15
2019-05-23T06:03:31.801Z,24.18
2019-05-23T06:06:17.350Z,25.68
2019-05-23T06:08:54.133Z,22.70
2019-05-23T06:11:22.861Z,24.70
2019-05-23T06:13:51.888Z,21.15
2019-05-23T06:16:20.946Z,27.55
2019-05-23T06:18:49.771Z,20.68
2019-05-23T06:21:26.530Z,11.48
2019-05-23T06:23:56.421Z,13.88
2019-05-23T06:26:25.170Z,15.30
2019-05-23T06:28:53.991Z,15.28
2019-05-23T06:31:23.193Z,11.08
2019-05-23T06:33:52.700Z,14.90
2019-05-23T06:36:22.871Z,13.38
2019-05-23T06:38:51.974Z,11.43
2019-05-23T06:41:21.561Z,10.93
2019-05-23T06:43:51.202Z,10.45
2019-05-23T06:46:20.180Z,10.98
2019-05-23T06:48:49.279Z,12.47
2019-05-23T06:51:18.107Z,24.25
2019-05-23T06:53:46.913Z,25.68
2019-05-23T06:56:15.655Z,23.50
2019-05-23T06:58:44.371Z,21.52
2019-05-23T07:01:13.133Z,27.35
2019-05-23T07:03:43.647Z,22.75
2019-05-23T07:06:15.193Z,24.67
2019-05-23T07:08:44.039Z,34.03
2019-05-23T07:11:12.927Z,31.25
2019-05-23T07:13:42.403Z,27.98
2019-05-23T07:16:11.434Z,28.15
2019-05-23T07:18:42.098Z,24.63
2019-05-23T07:21:12.253Z,13.22
2019-05-23T07:23:41.084Z,17.10
2019-05-23T07:26:10.637Z,17.17
2019-05-23T07:28:39.901Z,15.05
2019-05-23T07:31:08.678Z,17.85
2019-05-23T07:33:37.904Z,17.27
2019-05-23T07:36:07.029Z,15.70
2019-05-23T07:38:35.794Z,13.78
2019-05-23T07:41:04.527Z,12.13
2019-05-23T07:43:35.980Z,14.15
2019-05-23T07:46:05.176Z,15.58
2019-05-23T07:48:35.244Z,22.95
2019-05-23T07:51:04.121Z,20.10
2019-05-23T07:53:44.238Z,19.40
2019-05-23T07:56:16.413Z,19.77
2019-05-23T08:01:25.490Z,12.05
2019-05-23T08:03:56.118Z,18.90
2019-05-23T08:06:24.838Z,12.80
2019-05-23T08:08:54.024Z,18.50
2019-05-23T08:11:23.391Z,12.10
2019-05-23T08:13:53.605Z,15.70
2019-05-23T08:16:24.172Z,15.98
2019-05-23T08:18:53.234Z,13.10
2019-05-23T08:21:23.020Z,11.48
2019-05-23T08:23:51.698Z,9.33
2019-05-23T08:26:21.778Z,13.20
2019-05-23T08:29:12.225Z,17.00
2019-05-23T08:31:22.238Z,17.37
2019-05-23T08:33:51.104Z,14.23
2019-05-23T08:36:20.521Z,10.58
2019-05-23T08:38:49.767Z,13.45
2019-05-23T08:41:18.901Z,11.12
2019-05-23T08:43:47.629Z,8.60
2019-05-23T08:46:16.955Z,11.28
2019-05-23T08:48:45.761Z,10.32
2019-05-23T08:51:14.959Z,7.97
2019-05-23T08:53:43.693Z,12.43
2019-05-23T08:56:18.711Z,7.85
2019-05-23T08:58:43.009Z,12.47
2019-05-23T09:01:11.897Z,10.25
2019-05-23T09:03:40.684Z,11.68
2019-05-23T09:06:11.378Z,9.38
2019-05-23T09:08:41.400Z,8.98
2019-05-23T09:11:11.287Z,6.75
2019-05-23T09:13:40.006Z,7.75
2019-05-23T09:16:09.861Z,9.88
2019-05-23T09:18:38.578Z,10.20
2019-05-23T09:21:07.409Z,7.33
2019-05-23T09:23:36.342Z,9.98
2019-05-23T09:26:05.184Z,12.78
2019-05-23T09:28:33.935Z,11.05
2019-05-23T09:31:03.122Z,10.20
2019-05-23T09:33:31.881Z,9.78
2019-05-23T09:36:01.076Z,5.75
2019-05-23T09:38:29.850Z,10.70
2019-05-23T09:40:58.574Z,11.43
2019-05-23T09:43:27.597Z,11.15
2019-05-23T09:45:56.316Z,10.32
2019-05-23T09:48:25.157Z,11.05
2019-05-23T09:50:53.927Z,10.80
2019-05-23T09:53:22.938Z,10.03
2019-05-23T09:55:51.656Z,8.43
2019-05-23T09:58:20.402Z,14.78
2019-05-23T10:00:49.122Z,7.78
2019-05-23T10:03:18.121Z,10.65
2019-05-23T10:05:46.945Z,8.88
2019-05-23T10:08:15.703Z,16.40
2019-05-23T10:10:46.198Z,6.92
2019-05-23T10:13:16.091Z,7.72
2019-05-23T10:16:01.911Z,10.38
2019-05-23T10:18:30.689Z,10.75
2019-05-23T10:20:59.449Z,8.20
2019-05-23T10:23:28.161Z,8.00
2019-05-23T10:25:56.891Z,9.60
2019-05-23T10:28:25.676Z,4.25
2019-05-23T10:30:54.470Z,9.20
2019-05-23T10:33:24.110Z,6.72
2019-05-23T10:36:00.295Z,7.80
2019-05-23T10:38:24.068Z,9.15
2019-05-23T10:40:53.019Z,7.17
2019-05-23T10:43:21.877Z,8.88
2019-05-23T10:45:50.915Z,7.60
2019-05-23T10:48:21.294Z,8.80
2019-05-23T10:50:50.284Z,7.35
2019-05-23T10:53:19.295Z,7.92
2019-05-23T10:55:48.028Z,11.12
2019-05-23T10:58:28.559Z,11.08
2019-05-23T11:00:58.056Z,7.85
2019-05-23T11:03:27.526Z,5.30
2019-05-23T11:05:57.008Z,7.65
2019-05-23T11:08:28.809Z,10.43
2019-05-23T11:10:56.208Z,9.68
2019-05-23T11:13:44.424Z,11.10
2019-05-23T11:16:13.491Z,9.38
2019-05-23T11:18:42.238Z,9.73
2019-05-23T11:21:11.072Z,6.40
2019-05-23T11:23:41.440Z,10.65
2019-05-23T11:26:10.928Z,10.30
2019-05-23T11:28:58.945Z,12.05
2019-05-23T11:31:28.050Z,6.70
2019-05-23T11:33:56.975Z,9.45
2019-05-23T11:36:35.544Z,7.45
2019-05-23T11:38:57.180Z,6.10
2019-05-23T11:41:25.878Z,6.22
2019-05-23T11:43:54.655Z,3.98
2019-05-23T11:46:28.197Z,7.42
2019-05-23T11:48:57.594Z,5.42
2019-05-23T11:51:26.620Z,6.55
2019-05-23T11:54:07.083Z,6.72
2019-05-23T11:56:26.305Z,7.75
2019-05-23T11:58:55.063Z,6.05
2019-05-23T12:01:26.429Z,7.60
2019-05-23T12:03:56.804Z,4.17
2019-05-23T12:06:27.231Z,8.63
2019-05-23T12:08:55.945Z,4.00
2019-05-23T12:11:28.189Z,6.30
2019-05-23T12:13:56.948Z,4.37
2019-05-23T12:16:25.680Z,5.60
2019-05-23T12:18:54.395Z,4.97
2019-05-23T12:21:23.621Z,7.30
2019-05-23T12:23:52.311Z,6.90
2019-05-23T12:26:21.067Z,3.60
2019-05-23T12:28:49.864Z,5.60
2019-05-23T12:31:18.661Z,15.25
2019-05-23T12:33:47.462Z,5.53
2019-05-23T12:36:16.179Z,6.50
2019-05-23T12:38:44.931Z,3.45
2019-05-23T12:41:15.355Z,8.88
2019-05-23T12:43:44.009Z,5.05
2019-05-23T12:46:12.794Z,6.60
2019-05-23T12:48:52.240Z,5.80
2019-05-23T12:51:25.489Z,5.70
2019-05-23T12:53:54.331Z,8.28
2019-05-23T12:56:23.156Z,4.67
2019-05-23T12:58:52.413Z,6.17
2019-05-23T13:01:22.562Z,7.05
2019-05-23T13:03:54.278Z,8.03
2019-05-23T13:06:23.459Z,3.50
2019-05-23T13:08:52.234Z,4.83
2019-05-23T13:11:21.197Z,3.12
2019-05-23T13:13:49.833Z,7.40
2019-05-23T13:16:18.582Z,2.85
2019-05-23T13:18:47.278Z,4.33
2019-05-23T13:21:16.095Z,4.58
2019-05-23T13:23:45.029Z,5.17
2019-05-23T13:26:13.903Z,4.42
2019-05-23T13:28:49.054Z,2.72
2019-05-23T13:31:17.846Z,3.67
2019-05-23T13:33:46.667Z,8.50
2019-05-23T13:36:16.754Z,3.05
2019-05-23T13:38:45.871Z,3.40
2019-05-23T13:41:14.855Z,2.70
2019-05-23T13:43:43.633Z,3.47
2019-05-23T13:46:12.369Z,3.70
2019-05-23T13:48:41.178Z,1.95
2019-05-23T13:51:09.897Z,5.12
2019-05-23T13:53:38.611Z,5.20
2019-05-23T13:56:07.644Z,2.85
2019-05-23T13:58:36.577Z,3.85
2019-05-23T14:01:09.392Z,2.37
2019-05-23T14:03:36.638Z,2.72
2019-05-23T14:06:07.229Z,2.12
2019-05-23T14:08:36.017Z,1.90
2019-05-23T14:11:06.750Z,2.37
2019-05-23T14:13:35.627Z,2.45
2019-05-23T14:16:05.910Z,2.10
2019-05-23T14:18:36.052Z,4.10
2019-05-23T14:21:05.078Z,2.95
2019-05-23T14:23:36.024Z,2.35
2019-05-23T14:26:05.036Z,2.67
2019-05-23T14:28:34.060Z,3.92
2019-05-23T14:31:04.436Z,4.78
2019-05-23T14:33:34.804Z,3.75
2019-05-23T14:36:05.536Z,9.88
2019-05-23T14:38:38.191Z,5.60
2019-05-23T14:41:08.313Z,3.75
2019-05-23T14:43:37.506Z,2.60
2019-05-23T14:46:07.874Z,3.08
2019-05-23T14:48:53.317Z,3.02
2019-05-23T14:51:26.590Z,4.50
2019-05-23T14:53:59.668Z,2.90
2019-05-23T14:56:30.540Z,5.03
2019-05-23T14:58:59.259Z,2.55
2019-05-23T15:01:29.733Z,4.33
2019-05-23T15:03:58.485Z,3.40
2019-05-23T15:06:27.425Z,5.70
2019-05-23T15:08:56.443Z,3.10
2019-05-23T15:11:25.233Z,3.50
2019-05-23T15:13:54.041Z,4.67
2019-05-23T15:16:23.668Z,7.33
2019-05-23T15:18:52.891Z,5.22
2019-05-23T15:21:21.682Z,5.53
2019-05-23T15:23:50.400Z,7.83
2019-05-23T15:26:22.919Z,11.10
2019-05-23T15:28:49.605Z,11.60
2019-05-23T15:31:19.940Z,9.55
2019-05-23T15:33:48.708Z,10.03
2019-05-23T15:36:17.530Z,17.00
2019-05-23T15:38:46.511Z,17.48
2019-05-23T15:41:15.253Z,22.25
2019-05-23T15:43:44.120Z,18.70
2019-05-23T15:46:14.665Z,19.70
2019-05-23T15:48:43.488Z,20.92
2019-05-23T15:51:14.210Z,21.42
2019-05-23T15:54:03.104Z,28.00
2019-05-23T15:56:40.542Z,23.50
2019-05-23T15:59:14.429Z,29.18
2019-05-23T16:01:45.895Z,22.93
2019-05-23T16:04:16.262Z,24.97
2019-05-23T16:06:47.555Z,22.77
2019-05-23T16:09:28.700Z,16.30
2019-05-23T16:11:47.250Z,13.75
2019-05-23T16:14:16.333Z,13.40
2019-05-23T16:16:45.437Z,15.28
2019-05-23T16:19:14.178Z,13.98
2019-05-23T16:21:42.871Z,18.05
2019-05-23T16:24:12.171Z,13.25
2019-05-23T16:26:40.931Z,14.93
2019-05-23T16:29:10.695Z,15.98
2019-05-23T16:31:39.752Z,13.65
2019-05-23T16:34:08.566Z,14.05
2019-05-23T16:36:37.374Z,22.65
2019-05-23T16:39:08.095Z,16.30
2019-05-23T16:41:36.903Z,17.30
2019-05-23T16:44:07.020Z,14.95
2019-05-23T16:46:36.775Z,14.20
2019-05-23T16:49:05.926Z,17.48
2019-05-23T16:51:34.913Z,16.57
2019-05-23T16:54:03.689Z,16.10
2019-05-23T16:56:40.392Z,15.72
2019-05-23T16:59:10.671Z,15.85
2019-05-23T17:01:57.079Z,15.95
2019-05-23T17:04:19.350Z,18.40
2019-05-23T17:07:01.405Z,14.90
2019-05-23T17:09:40.908Z,14.83
2019-05-23T17:12:23.145Z,13.53
2019-05-23T17:14:55.981Z,15.23
2019-05-23T17:17:49.032Z,14.30
2019-05-23T17:20:01.377Z,13.22
2019-05-23T17:22:37.817Z,18.98
2019-05-23T17:25:12.684Z,13.98
2019-05-23T17:27:51.986Z,14.18
2019-05-23T17:30:28.420Z,13.58
2019-05-23T17:32:57.173Z,15.53
2019-05-23T17:35:27.473Z,13.85
2019-05-23T17:37:56.472Z,15.18
2019-05-23T17:40:25.786Z,18.70
2019-05-23T17:42:55.281Z,14.87
2019-05-23T17:45:26.128Z,15.93
2019-05-23T17:47:55.834Z,16.02
2019-05-23T17:50:24.970Z,20.02
2019-05-23T17:52:53.809Z,14.38
2019-05-23T17:55:22.744Z,17.55
2019-05-23T17:57:51.652Z,16.25
2019-05-23T18:00:22.114Z,17.42
2019-05-23T18:02:51.330Z,21.23
2019-05-23T18:05:20.844Z,21.37
2019-05-23T18:07:49.538Z,15.55
2019-05-23T18:10:18.710Z,16.23
2019-05-23T18:12:47.624Z,18.57
2019-05-23T18:15:17.517Z,17.30
2019-05-23T18:17:47.228Z,16.45
2019-05-23T18:20:16.533Z,18.92
2019-05-23T18:22:45.185Z,17.82
2019-05-23T18:25:14.525Z,19.05
2019-05-23T18:27:46.809Z,15.43
2019-05-23T18:30:20.619Z,17.40
2019-05-23T18:32:50.030Z,17.82
2019-05-23T18:35:19.191Z,18.15
2019-05-23T18:37:47.929Z,20.85
2019-05-23T18:40:17.606Z,17.25
2019-05-23T18:42:46.473Z,20.20
2019-05-23T18:45:16.644Z,19.77
2019-05-23T18:47:45.707Z,18.98
2019-05-23T18:50:15.857Z,23.73
2019-05-23T18:52:44.689Z,18.77
2019-05-23T18:55:14.527Z,18.87
2019-05-23T18:57:45.304Z,19.80
2019-05-23T19:00:14.925Z,21.73
2019-05-23T19:02:43.730Z,22.35
2019-05-23T19:05:13.444Z,20.65
2019-05-23T19:07:43.261Z,19.45
2019-05-23T19:10:13.758Z,21.07
2019-05-23T19:12:42.865Z,19.40
2019-05-23T19:15:12.871Z,21.12
2019-05-23T19:17:41.719Z,19.27
2019-05-23T19:20:12.017Z,19.20
2019-05-23T19:22:40.812Z,20.50
2019-05-23T19:25:11.276Z,24.75
2019-05-23T19:27:40.012Z,21.25
2019-05-23T19:30:10.622Z,20.20
2019-05-23T19:32:39.391Z,24.10
2019-05-23T19:35:09.342Z,20.92
2019-05-23T19:37:38.159Z,20.77
2019-05-23T19:40:08.340Z,17.48
2019-05-23T19:42:37.637Z,17.50
2019-05-23T19:45:08.034Z,17.02
2019-05-23T19:47:36.927Z,20.27
2019-05-23T19:50:09.145Z,20.48
2019-05-23T19:52:37.997Z,20.85
2019-05-23T19:55:10.016Z,22.10
2019-05-23T19:57:39.896Z,17.77
2019-05-23T20:00:11.220Z,17.90
2019-05-23T20:02:41.584Z,20.65
2019-05-23T20:05:13.945Z,17.95
2019-05-23T20:10:12.317Z,21.02
2019-05-23T20:12:41.116Z,20.50
2019-05-23T20:15:09.873Z,20.75
2019-05-23T20:17:38.566Z,20.15
2019-05-23T20:20:11.880Z,19.90
2019-05-23T20:22:40.672Z,17.80
2019-05-23T20:25:11.164Z,21.73
2019-05-23T20:27:39.833Z,19.35
2019-05-23T20:30:10.400Z,22.27
2019-05-23T20:32:39.181Z,19.95
2019-05-23T20:35:07.968Z,20.37
2019-05-23T20:37:37.098Z,19.05
2019-05-23T20:40:06.473Z,18.52
2019-05-23T20:42:35.155Z,19.27
2019-05-23T20:45:04.796Z,23.40
2019-05-23T20:47:34.296Z,21.05
2019-05-23T20:50:03.226Z,21.48
2019-05-23T20:52:31.955Z,20.82
2019-05-23T20:55:00.692Z,25.62
2019-05-23T20:57:29.408Z,22.65
2019-05-23T20:59:58.137Z,21.73
2019-05-23T21:02:26.940Z,20.32
2019-05-23T21:04:55.720Z,24.10
2019-05-23T21:07:24.397Z,24.10
2019-05-23T21:09:53.116Z,23.83
2019-05-23T21:12:30.012Z,22.52
2019-05-23T21:14:52.145Z,20.30
2019-05-23T21:17:20.978Z,20.32
2019-05-23T21:19:49.777Z,22.48
2019-05-23T21:22:18.571Z,17.42
2019-05-23T21:24:47.268Z,22.13
2019-05-23T21:27:17.372Z,18.60
2019-05-23T21:29:46.275Z,19.23
2019-05-23T21:32:15.067Z,17.70
2019-05-23T21:34:43.864Z,19.15
2019-05-23T21:37:12.752Z,21.27
2019-05-23T21:39:41.414Z,19.87
2019-05-23T21:42:10.145Z,18.92
2019-05-23T21:44:38.841Z,17.55
2019-05-23T21:47:08.443Z,18.45
2019-05-23T21:49:37.092Z,17.48
2019-05-23T21:52:06.488Z,17.45
2019-05-23T21:54:35.213Z,19.82
2019-05-23T21:57:04.246Z,21.95
2019-05-23T21:59:32.903Z,16.32
2019-05-23T22:02:06.188Z,19.25
2019-05-23T22:04:36.500Z,20.55
2019-05-23T22:07:05.293Z,19.02
2019-05-23T22:09:34.190Z,17.52
2019-05-23T22:12:03.781Z,17.15
2019-05-23T22:14:32.800Z,22.27
2019-05-23T22:17:01.533Z,18.30
2019-05-23T22:19:30.184Z,19.45
2019-05-23T22:21:58.952Z,16.80
2019-05-23T22:24:27.679Z,18.52
2019-05-23T22:26:56.409Z,19.85
2019-05-23T22:29:25.418Z,19.23
2019-05-23T22:31:56.502Z,20.95
2019-05-23T22:34:29.025Z,21.20
2019-05-23T22:36:58.944Z,18.52
2019-05-23T22:39:28.043Z,20.52
2019-05-23T22:41:56.760Z,19.62
2019-05-23T22:44:25.513Z,20.57
2019-05-23T22:46:54.308Z,20.15
2019-05-23T22:49:23.036Z,21.77
2019-05-23T22:51:51.765Z,19.90
2019-05-23T22:54:20.484Z,23.00
2019-05-23T22:56:49.141Z,21.87
2019-05-23T22:59:17.874Z,19.52
2019-05-23T23:01:46.689Z,20.55
2019-05-23T23:04:15.408Z,21.50
2019-05-23T23:06:44.141Z,20.15
2019-05-23T23:09:12.885Z,20.17
2019-05-23T23:11:41.629Z,18.80
2019-05-23T23:14:10.393Z,20.50
2019-05-23T23:16:39.124Z,21.30
2019-05-23T23:19:08.042Z,21.15
2019-05-23T23:21:36.834Z,21.57
2019-05-23T23:24:05.560Z,21.57
2019-05-23T23:26:34.361Z,19.23
2019-05-23T23:29:03.753Z,21.30
2019-05-23T23:31:32.588Z,24.92
2019-05-23T23:34:01.354Z,21.50
2019-05-23T23:36:30.108Z,20.88
2019-05-23T23:38:58.837Z,20.23
2019-05-23T23:41:27.634Z,24.30
2019-05-23T23:43:59.634Z,21.65
2019-05-23T23:46:44.627Z,21.90
2019-05-23T23:49:31.649Z,22.22
2019-05-23T23:52:18.212Z,24.82
2019-05-23T23:55:04.859Z,26.07
2019-05-23T23:57:51.888Z,21.87
